Time;durP1;ratioP1;P1;durP2;ratioP2;P2;SDS_P1;SDS_P2;PMS_P1;PMS_P2;Temp;Humidity;BMP_temperature;BMP_pressure;BME280_temperature;BME280_humidity;BME280_pressure;Samples;Min_cycle;Max_cycle;Signal;HPM_P1;HPM_P2
2023/04/04 00:02:23;;;;;;;6.30;5.70;;;;;;;-143.84;96.84;44114.25;5071512;28;20496;-77
2023/04/04 00:04:51;;;;;;;5.90;5.40;;;;;;;-143.84;96.88;44108.53;5071559;28;21018;-77
2023/04/04 00:07:18;;;;;;;7.67;5.50;;;;;;;-143.84;96.90;44102.84;5071184;28;20476;-77
2023/04/04 00:09:45;;;;;;;13.63;5.83;;;;;;;-143.84;96.84;44099.03;5071741;28;20474;-77
2023/04/04 00:12:14;;;;;;;8.10;5.93;;;;;;;-143.84;96.75;44093.31;5071321;28;20465;-77
2023/04/04 00:14:42;;;;;;;7.90;6.03;;;;;;;-143.84;96.52;44102.84;5071182;28;20459;-77
2023/04/04 00:17:09;;;;;;;5.03;4.50;;;;;;;-143.84;96.44;44095.22;5071111;28;20455;-77
2023/04/04 00:19:36;;;;;;;7.73;5.27;;;;;;;-143.84;96.60;44093.31;5071413;28;20427;-77
2023/04/04 00:22:03;;;;;;;7.30;5.90;;;;;;;-143.84;96.57;44091.41;5070319;28;20445;-77
2023/04/04 00:24:30;;;;;;;6.03;5.20;;;;;;;-143.84;96.36;44078.09;5068937;28;20477;-77
2023/04/04 00:26:57;;;;;;;6.50;5.23;;;;;;;-143.84;96.57;44083.78;5067681;28;20443;-77
2023/04/04 00:29:26;;;;;;;5.53;4.97;;;;;;;-143.84;96.49;44085.69;5067621;28;20442;-77
2023/04/04 00:31:53;;;;;;;7.30;5.30;;;;;;;-143.84;96.31;44089.50;5070209;28;20511;-77
2023/04/04 00:34:20;;;;;;;15.10;4.83;;;;;;;-143.84;96.29;44089.50;5069416;28;20471;-76
2023/04/04 00:36:47;;;;;;;5.53;5.00;;;;;;;-143.84;96.26;44081.88;5070008;28;20871;-76
2023/04/04 00:39:14;;;;;;;11.23;5.77;;;;;;;-143.84;96.36;44093.31;5070122;28;20506;-77
2023/04/04 00:41:41;;;;;;;9.30;5.40;;;;;;;-143.84;96.20;44070.47;5070321;28;20438;-78
2023/04/04 00:44:09;;;;;;;11.23;5.40;;;;;;;-143.84;96.21;44074.28;5070008;28;20477;-78
2023/04/04 00:46:37;;;;;;;5.30;4.73;;;;;;;-143.84;96.09;44059.03;5069188;28;20455;-77
2023/04/04 00:49:05;;;;;;;8.07;5.60;;;;;;;-143.84;95.99;44070.47;5068988;28;20890;-77
2023/04/04 00:51:32;;;;;;;5.00;4.60;;;;;;;-143.84;96.03;44068.56;5069086;28;20443;-77
2023/04/04 00:53:59;;;;;;;10.57;5.10;;;;;;;-143.84;96.22;44083.78;5069605;28;20545;-77
2023/04/04 00:56:27;;;;;;;11.70;4.67;;;;;;;-143.84;96.20;44076.19;5068654;28;20500;-76
2023/04/04 00:58:55;;;;;;;6.23;5.10;;;;;;;-143.84;96.00;44076.19;5069736;28;20492;-76
2023/04/04 01:01:24;;;;;;;13.70;5.20;;;;;;;-143.84;96.17;44085.69;5073423;28;21493;-76
2023/04/04 01:03:53;;;;;;;7.13;5.10;;;;;;;-143.84;96.32;44080.00;5071748;28;20478;-76
2023/04/04 01:06:20;;;;;;;5.33;4.87;;;;;;;-143.84;96.44;44091.41;5074067;28;20442;-75
2023/04/04 01:08:48;;;;;;;12.33;5.50;;;;;;;-143.84;96.50;44095.22;5074642;28;20437;-75
2023/04/04 01:11:16;;;;;;;6.37;5.10;;;;;;;-143.84;96.79;44100.94;5074364;28;20493;-75
2023/04/04 01:13:44;;;;;;;6.03;5.00;;;;;;;-143.84;96.79;44093.31;5074033;28;20766;-75
2023/04/04 01:16:11;;;;;;;4.53;4.10;;;;;;;-143.84;96.93;44097.13;5074798;28;20444;-75
2023/04/04 01:18:40;;;;;;;9.53;5.50;;;;;;;-143.84;96.98;44106.63;5074414;28;20994;-75
2023/04/04 01:21:12;;;;;;;7.60;5.53;;;;;;;-143.84;96.84;44099.03;5074378;28;20442;-75
2023/04/04 01:23:49;;;;;;;11.60;5.40;;;;;;;-143.84;96.80;44093.31;5074549;28;20552;-76
2023/04/04 01:26:20;;;;;;;10.20;4.47;;;;;;;-143.84;96.64;44095.22;5073713;28;20528;-76
2023/04/04 01:28:47;;;;;;;11.93;6.03;;;;;;;-143.84;96.83;44106.63;5071307;28;20457;-76
2023/04/04 01:31:16;;;;;;;9.00;5.70;;;;;;;-143.84;96.74;44097.13;5071246;28;20503;-76
2023/04/04 01:33:52;;;;;;;8.30;5.27;;;;;;;-143.84;96.66;44104.72;5073184;28;20438;-76
2023/04/04 01:36:32;;;;;;;6.50;5.13;;;;;;;-143.84;96.71;44100.94;5073503;28;21011;-76
2023/04/04 01:39:05;;;;;;;9.37;5.90;;;;;;;-143.84;96.55;44097.13;5073017;28;20918;-76
2023/04/04 01:41:35;;;;;;;11.90;6.07;;;;;;;-143.84;96.77;44110.44;5073479;28;21139;-76
2023/04/04 01:44:03;;;;;;;6.20;5.23;;;;;;;-143.84;96.84;44097.13;5074040;28;20557;-75
2023/04/04 01:46:30;;;;;;;11.33;5.53;;;;;;;-143.84;96.75;44089.50;5074059;28;20504;-75
2023/04/04 01:48:57;;;;;;;11.00;5.80;;;;;;;-143.84;96.86;44108.53;5074285;28;20444;-75
2023/04/04 01:51:24;;;;;;;6.67;5.70;;;;;;;-143.84;97.06;44104.72;5072714;28;20449;-76
2023/04/04 01:53:51;;;;;;;8.67;5.63;;;;;;;-143.84;96.97;44108.53;5073355;28;20435;-76
2023/04/04 01:56:19;;;;;;;10.37;5.40;;;;;;;-143.84;96.92;44112.34;5073798;28;20440;-76
2023/04/04 01:58:47;;;;;;;8.30;6.40;;;;;;;-143.84;97.07;44116.16;5073742;28;21305;-76
2023/04/04 02:01:14;;;;;;;7.93;5.30;;;;;;;-143.84;96.75;44112.34;5073451;28;20461;-75
2023/04/04 02:03:42;;;;;;;11.17;6.30;;;;;;;-143.84;96.70;44095.22;5073097;28;20494;-75
2023/04/04 02:06:09;;;;;;;10.77;5.70;;;;;;;-143.84;96.85;44104.72;5073307;28;20511;-75
2023/04/04 02:08:37;;;;;;;10.43;5.60;;;;;;;-143.84;96.66;44095.22;5073130;28;21013;-75
2023/04/04 02:11:04;;;;;;;14.73;7.50;;;;;;;-143.84;96.53;44095.22;5072398;28;21073;-75
2023/04/04 02:13:31;;;;;;;6.90;5.90;;;;;;;-143.84;96.58;44095.22;5073153;28;20446;-75
2023/04/04 02:16:00;;;;;;;6.40;5.60;;;;;;;-143.84;96.71;44095.22;5073025;28;20879;-75
2023/04/04 02:18:27;;;;;;;10.03;7.20;;;;;;;-143.84;96.60;44091.41;5073163;28;20503;-75
2023/04/04 02:20:57;;;;;;;8.90;7.10;;;;;;;-143.84;96.75;44093.31;5071093;28;20505;-75
2023/04/04 02:23:25;;;;;;;9.87;7.83;;;;;;;-143.84;96.84;44106.63;5071995;28;20434;-75
2023/04/04 02:25:52;;;;;;;10.80;7.30;;;;;;;-143.84;96.81;44104.72;5072762;28;20489;-75
2023/04/04 02:28:19;;;;;;;11.00;7.40;;;;;;;-143.84;96.85;44106.63;5072538;28;20503;-75
2023/04/04 02:30:46;;;;;;;10.00;7.80;;;;;;;-143.84;97.08;44123.78;5072590;28;21033;-78
2023/04/04 02:33:15;;;;;;;9.77;7.30;;;;;;;-143.84;97.29;44114.25;5073123;28;20442;-78
2023/04/04 02:35:42;;;;;;;9.53;7.13;;;;;;;-143.84;96.96;44118.06;5072478;28;21168;-77
2023/04/04 02:38:09;;;;;;;18.40;8.10;;;;;;;-143.84;96.99;44121.88;5071838;28;20443;-77
2023/04/04 02:40:38;;;;;;;14.70;8.03;;;;;;;-143.84;97.35;44110.44;5071706;28;20491;-77
2023/04/04 02:43:05;;;;;;;10.53;8.03;;;;;;;-143.84;97.10;44114.25;5071846;28;20504;-78
2023/04/04 02:45:32;;;;;;;10.77;7.80;;;;;;;-143.84;97.23;44116.16;5071847;28;21061;-77
2023/04/04 02:47:59;;;;;;;14.47;8.33;;;;;;;-143.84;96.98;44108.53;5072213;28;20434;-78
2023/04/04 02:50:28;;;;;;;13.43;8.23;;;;;;;-143.84;96.87;44108.53;5071952;28;20441;-78
2023/04/04 02:53:00;;;;;;;13.57;8.67;;;;;;;-143.84;96.73;44093.31;5071981;28;20443;-78
2023/04/04 02:55:27;;;;;;;11.87;8.43;;;;;;;-143.84;96.67;44102.84;5072197;28;20513;-78
2023/04/04 02:57:54;;;;;;;21.33;7.90;;;;;;;-143.84;96.61;44108.53;5071738;28;21142;-77
2023/04/04 03:00:21;;;;;;;24.60;9.20;;;;;;;-143.84;96.44;44100.94;5071841;28;20432;-78
2023/04/04 03:02:54;;;;;;;11.50;8.20;;;;;;;-143.84;96.38;44085.69;5072272;28;20439;-78
2023/04/04 03:05:21;;;;;;;22.53;10.00;;;;;;;-143.84;96.53;44093.31;5071910;28;20898;-78
2023/04/04 03:07:54;;;;;;;14.13;8.47;;;;;;;-143.84;96.77;44108.53;5071373;28;21043;-78
2023/04/04 03:10:22;;;;;;;16.37;8.77;;;;;;;-143.84;96.88;44110.44;5071264;28;20466;-77
2023/04/04 03:12:49;;;;;;;17.30;7.23;;;;;;;-143.84;97.07;44108.53;5071360;28;20848;-77
2023/04/04 03:15:16;;;;;;;14.10;7.80;;;;;;;-143.84;97.04;44119.97;5071514;28;20446;-77
2023/04/04 03:17:44;;;;;;;10.40;8.10;;;;;;;-143.84;96.93;44114.25;5070584;28;21042;-77
2023/04/04 03:20:14;;;;;;;19.03;8.33;;;;;;;-143.84;96.74;44108.53;5056301;28;20538;-76
2023/04/04 03:22:41;;;;;;;17.90;8.83;;;;;;;-143.84;96.66;44099.03;5050016;28;20436;-76
2023/04/04 03:25:10;;;;;;;15.20;8.63;;;;;;;-143.84;96.65;44102.84;5051577;28;20486;-76
2023/04/04 03:27:38;;;;;;;17.40;9.00;;;;;;;-143.84;96.75;44100.94;5050463;28;20509;-75
2023/04/04 03:30:07;;;;;;;16.33;9.60;;;;;;;-143.84;96.89;44119.97;5050606;28;21014;-76
2023/04/04 03:32:34;;;;;;;8.30;7.50;;;;;;;-143.84;97.21;44121.88;5050458;28;20447;-72
2023/04/04 03:35:01;;;;;;;14.83;9.57;;;;;;;-143.84;97.02;44118.06;5050521;28;20432;-74
2023/04/04 03:37:29;;;;;;;10.17;8.07;;;;;;;-143.84;96.95;44114.25;5049072;28;20479;-74
2023/04/04 03:39:56;;;;;;;14.37;9.67;;;;;;;-143.84;96.92;44100.94;5048806;28;20437;-74
2023/04/04 03:42:26;;;;;;;22.13;10.20;;;;;;;-143.84;96.82;44104.72;5048889;28;20442;-75
2023/04/04 03:44:53;;;;;;;14.30;9.13;;;;;;;-143.84;97.09;44114.25;5049646;28;20562;-74
2023/04/04 03:47:20;;;;;;;15.63;10.53;;;;;;;-143.84;96.99;44116.16;5048772;28;20950;-74
2023/04/04 03:49:50;;;;;;;14.40;9.53;;;;;;;-143.84;96.93;44108.53;5049201;28;20981;-75
2023/04/04 03:52:17;;;;;;;18.13;8.50;;;;;;;-143.84;96.68;44099.03;5049634;28;20445;-75
2023/04/04 03:54:45;;;;;;;18.03;8.80;;;;;;;-143.84;96.69;44104.72;5049362;28;20446;-74
2023/04/04 03:57:12;;;;;;;17.80;8.77;;;;;;;-143.84;96.25;44089.50;5050366;28;20441;-73
2023/04/04 03:59:41;;;;;;;17.27;9.53;;;;;;;-143.84;96.01;44078.09;5074193;28;20446;-73
2023/04/04 04:02:08;;;;;;;14.60;9.60;;;;;;;-143.84;95.74;44074.28;5089485;28;20457;-74
2023/04/04 04:04:35;;;;;;;14.47;8.50;;;;;;;-143.84;95.45;44057.16;5072997;28;20490;-74
2023/04/04 04:07:02;;;;;;;16.10;9.10;;;;;;;-143.84;95.44;44055.25;5069372;28;20529;-74
2023/04/04 04:09:29;;;;;;;12.90;9.07;;;;;;;-143.84;95.16;44040.00;5069019;28;20519;-74
2023/04/04 04:11:56;;;;;;;11.83;7.90;;;;;;;-143.84;95.28;44047.63;5068933;28;20476;-74
2023/04/04 04:14:23;;;;;;;21.87;9.27;;;;;;;-143.84;95.07;44040.00;5069046;28;20443;-74
2023/04/04 04:16:52;;;;;;;14.13;9.30;;;;;;;-143.84;95.23;44049.53;5069122;28;20447;-74
2023/04/04 04:19:19;;;;;;;15.20;8.07;;;;;;;-143.84;95.16;44043.81;5068849;28;20463;-74
2023/04/04 04:21:46;;;;;;;15.07;10.03;;;;;;;-143.84;95.12;44036.22;5068951;28;20443;-74
2023/04/04 04:24:14;;;;;;;19.23;8.80;;;;;;;-143.84;95.18;44038.09;5068647;28;21034;-74
2023/04/04 04:26:41;;;;;;;11.47;9.47;;;;;;;-143.84;95.44;44047.63;5068597;28;20487;-74
2023/04/04 04:29:08;;;;;;;21.23;8.70;;;;;;;-143.84;95.57;44057.16;5068567;28;20440;-74
2023/04/04 04:31:35;;;;;;;13.77;9.47;;;;;;;-143.84;95.53;44059.03;5067550;28;20447;-74
2023/04/04 04:34:05;;;;;;;15.60;9.07;;;;;;;-143.84;95.84;44055.25;5067957;28;21320;-74
2023/04/04 04:36:32;;;;;;;18.53;9.70;;;;;;;-143.84;95.48;44060.94;5072225;28;20439;-74
2023/04/04 04:38:59;;;;;;;17.13;10.07;;;;;;;-143.84;95.64;44062.84;5071758;28;20440;-74
2023/04/04 04:41:28;;;;;;;20.80;10.23;;;;;;;-143.84;95.66;44051.44;5071951;28;20954;-74
2023/04/04 04:43:55;;;;;;;17.03;10.80;;;;;;;-143.84;95.66;44066.66;5072079;28;20455;-74
2023/04/04 04:46:22;;;;;;;13.80;10.50;;;;;;;-143.84;95.77;44060.94;5070785;28;20439;-74
2023/04/04 04:48:49;;;;;;;16.60;10.67;;;;;;;-143.84;95.87;44070.47;5070945;28;21043;-74
2023/04/04 04:51:18;;;;;;;18.30;11.37;;;;;;;-143.84;96.04;44076.19;5070947;28;20439;-74
2023/04/04 04:53:45;;;;;;;15.20;11.23;;;;;;;-143.84;96.34;44080.00;5071004;28;20972;-73
2023/04/04 04:56:12;;;;;;;23.00;11.50;;;;;;;-143.84;96.14;44080.00;5070054;28;20500;-74
2023/04/04 04:58:40;;;;;;;21.67;12.60;;;;;;;-143.84;96.36;44091.41;5070314;28;20443;-74
2023/04/04 05:01:07;;;;;;;15.60;10.83;;;;;;;-143.84;96.42;44080.00;5071879;28;20440;-74
2023/04/04 05:03:34;;;;;;;19.93;11.93;;;;;;;-143.84;96.64;44106.63;5072224;28;20448;-74
2023/04/04 05:06:02;;;;;;;19.03;10.47;;;;;;;-143.84;96.59;44085.69;5072222;28;20474;-74
2023/04/04 05:08:31;;;;;;;18.70;12.03;;;;;;;-143.84;96.44;44093.31;5072523;28;20455;-74
2023/04/04 05:10:58;;;;;;;17.60;11.50;;;;;;;-143.84;96.56;44091.41;5071830;28;20494;-74
2023/04/04 05:13:25;;;;;;;20.33;11.13;;;;;;;-143.84;96.38;44078.09;5072026;28;20444;-74
2023/04/04 05:15:52;;;;;;;16.60;10.80;;;;;;;-143.84;96.23;44080.00;5071332;28;20450;-75
2023/04/04 05:18:19;;;;;;;22.73;9.83;;;;;;;-143.84;96.13;44081.88;5071152;28;20443;-74
2023/04/04 05:20:52;;;;;;;20.47;11.17;;;;;;;-143.84;96.03;44076.19;5072209;28;20790;-74
2023/04/04 05:23:19;;;;;;;14.20;8.67;;;;;;;-143.84;96.27;44074.28;5072082;28;20944;-75
2023/04/04 05:25:52;;;;;;;14.83;8.73;;;;;;;-143.84;95.94;44072.38;5071615;28;20965;-74
2023/04/04 05:28:19;;;;;;;15.23;8.50;;;;;;;-143.84;95.43;44072.38;5071894;28;20453;-75
2023/04/04 05:30:46;;;;;;;13.03;8.67;;;;;;;-143.84;95.02;44040.00;5072092;28;20512;-75
2023/04/04 05:33:13;;;;;;;16.57;10.07;;;;;;;-143.84;94.91;44038.09;5071942;28;20526;-75
2023/04/04 05:35:41;;;;;;;11.03;7.80;;;;;;;-143.84;94.78;44032.41;5071657;28;20509;-75
2023/04/04 05:38:08;;;;;;;17.80;8.23;;;;;;;-143.84;94.69;44024.78;5071775;28;21152;-75
2023/04/04 05:40:35;;;;;;;18.87;9.00;;;;;;;-143.84;94.64;44038.09;5071298;28;20444;-74
2023/04/04 05:43:04;;;;;;;16.23;7.83;;;;;;;-143.84;94.33;44019.06;5070864;28;20432;-75
2023/04/04 05:45:31;;;;;;;13.90;7.80;;;;;;;-143.84;94.04;44011.47;5069938;28;20479;-75
2023/04/04 05:47:58;;;;;;;24.47;8.30;;;;;;;-143.84;94.09;44001.94;5070604;28;20429;-75
2023/04/04 05:50:26;;;;;;;20.07;7.67;;;;;;;-143.84;94.08;43998.13;5070972;28;20487;-74
2023/04/04 05:52:55;;;;;;;9.80;8.03;;;;;;;-143.84;93.99;44003.84;5069836;28;20441;-75
2023/04/04 05:55:22;;;;;;;12.70;8.90;;;;;;;-143.84;94.22;44000.03;5070254;28;20446;-75
2023/04/04 05:57:50;;;;;;;21.20;7.97;;;;;;;-143.84;94.13;43992.41;5069913;28;20428;-75
2023/04/04 06:00:19;;;;;;;21.13;9.00;;;;;;;-143.84;94.02;44005.75;5069960;28;20965;-75
2023/04/04 06:02:47;;;;;;;15.53;8.17;;;;;;;-143.84;93.74;43982.91;5055495;28;20465;-74
2023/04/04 06:05:14;;;;;;;22.77;8.90;;;;;;;-143.84;93.68;43984.81;5050418;28;20497;-74
2023/04/04 06:07:41;;;;;;;17.43;8.70;;;;;;;-143.84;93.61;43990.53;5050894;28;20853;-74
2023/04/04 06:10:09;;;;;;;18.10;8.47;;;;;;;-143.84;93.33;43975.28;5051112;28;20966;-74
2023/04/04 06:12:36;;;;;;;22.03;9.60;;;;;;;-143.84;93.44;43960.06;5057498;28;20862;-74
2023/04/04 06:15:04;;;;;;;14.17;7.77;;;;;;;-143.84;93.46;43977.19;5055828;28;20504;-74
2023/04/04 06:17:33;;;;;;;22.10;9.50;;;;;;;-143.84;93.45;43965.78;5060396;28;20444;-74
2023/04/04 06:20:00;;;;;;;16.93;8.73;;;;;;;-143.84;93.63;43988.63;5069909;28;20459;-74
2023/04/04 06:22:27;;;;;;;14.73;8.80;;;;;;;-143.84;93.75;43982.91;5070935;28;20441;-75
2023/04/04 06:24:54;;;;;;;15.40;8.73;;;;;;;-143.84;93.77;43992.41;5067746;28;20477;-74
2023/04/04 06:27:22;;;;;;;15.63;8.00;;;;;;;-143.84;94.10;44007.66;5059434;28;20447;-74
2023/04/04 06:29:49;;;;;;;15.53;7.50;;;;;;;-143.84;93.76;43994.31;5058258;28;20518;-74
2023/04/04 06:32:16;;;;;;;24.37;8.40;;;;;;;-143.84;93.99;43986.72;5059205;28;20438;-75
2023/04/04 06:34:45;;;;;;;17.00;8.13;;;;;;;-143.84;93.63;43975.28;5059639;28;20461;-75
2023/04/04 06:37:12;;;;;;;18.83;8.63;;;;;;;-143.84;93.76;43990.53;5055170;28;20464;-75
2023/04/04 06:39:39;;;;;;;15.57;7.57;;;;;;;-143.84;93.63;43977.19;5052646;28;20457;-74
2023/04/04 06:42:06;;;;;;;11.63;8.20;;;;;;;-143.84;93.65;43998.13;5057723;28;20443;-74
2023/04/04 06:44:33;;;;;;;11.63;7.20;;;;;;;-143.84;93.49;43981.00;5065583;28;20444;-74
2023/04/04 06:47:00;;;;;;;17.33;7.60;;;;;;;-143.84;93.57;43988.63;5050954;28;20452;-74
2023/04/04 06:49:28;;;;;;;12.43;7.63;;;;;;;-143.84;93.87;44009.56;5050614;28;20797;-74
2023/04/04 06:51:57;;;;;;;16.13;7.83;;;;;;;-143.84;94.59;44017.16;5057864;28;21257;-75
2023/04/04 06:54:25;;;;;;;25.03;8.57;;;;;;;-143.84;94.86;44041.91;5058863;28;20445;-74
2023/04/04 06:56:52;;;;;;;14.67;7.33;;;;;;;-143.84;95.30;44040.00;5052072;28;20463;-74
2023/04/04 06:59:19;;;;;;;13.67;6.63;;;;;;;-143.84;95.53;44051.44;5050043;28;20528;-74
2023/04/04 07:01:49;;;;;;;19.00;8.30;;;;;;;-143.84;95.66;44062.84;5055757;28;20454;-74
2023/04/04 07:04:19;;;;;;;13.70;8.70;;;;;;;-143.84;95.47;44053.34;5050063;28;20529;-74
2023/04/04 07:06:46;;;;;;;17.50;7.73;;;;;;;-143.84;95.55;44049.53;5049638;28;20539;-75
2023/04/04 07:09:14;;;;;;;14.70;8.60;;;;;;;-143.84;95.13;44038.09;5050064;28;21293;-74
2023/04/04 07:11:41;;;;;;;16.13;7.47;;;;;;;-143.84;95.10;44034.31;5055407;28;20480;-74
2023/04/04 07:14:09;;;;;;;16.70;8.70;;;;;;;-143.84;95.10;44051.44;5062706;28;20833;-74
2023/04/04 07:16:36;;;;;;;21.97;7.83;;;;;;;-143.84;94.97;44032.41;5063785;28;20445;-74
2023/04/04 07:19:04;;;;;;;12.97;7.23;;;;;;;-143.84;94.76;44030.50;5056856;28;20434;-74
2023/04/04 07:21:31;;;;;;;25.10;9.20;;;;;;;-143.84;95.08;44041.91;5058256;28;20441;-74
2023/04/04 07:23:59;;;;;;;13.47;7.50;;;;;;;-143.84;95.18;44036.22;5053698;28;20429;-74
2023/04/04 07:26:27;;;;;;;14.40;8.33;;;;;;;-143.84;95.24;44045.72;5060697;28;20460;-74
2023/04/04 07:28:54;;;;;;;17.67;8.33;;;;;;;-143.84;95.43;44043.81;5058398;28;20452;-74
2023/04/04 07:31:21;;;;;;;20.27;10.20;;;;;;;-143.84;95.53;44055.25;5061077;28;20463;-74
2023/04/04 07:33:49;;;;;;;17.33;8.87;;;;;;;-143.84;95.35;44053.34;5058126;28;20441;-75
2023/04/04 07:36:16;;;;;;;15.27;8.20;;;;;;;-143.84;95.58;44047.63;5060137;28;20495;-74
2023/04/04 07:38:43;;;;;;;23.30;8.87;;;;;;;-143.84;95.39;44049.53;5060681;28;20449;-74
2023/04/04 07:41:11;;;;;;;24.73;9.33;;;;;;;-143.84;95.32;44049.53;5039714;28;20452;-74
2023/04/04 07:43:40;;;;;;;24.23;9.50;;;;;;;-143.84;95.90;44057.16;5063231;28;20434;-74
2023/04/04 07:46:07;;;;;;;15.17;9.33;;;;;;;-143.84;95.92;44066.66;5049596;28;20480;-74
2023/04/04 07:48:34;;;;;;;18.20;8.70;;;;;;;-143.84;95.56;44062.84;5049355;28;20833;-75
2023/04/04 07:51:03;;;;;;;15.20;8.50;;;;;;;-143.84;95.25;44051.44;5049511;28;20441;-75
2023/04/04 07:53:30;;;;;;;22.90;8.80;;;;;;;-143.84;94.42;44030.50;5059481;28;20453;-75
2023/04/04 07:55:57;;;;;;;13.43;7.70;;;;;;;-143.84;94.31;44003.84;5069094;28;20445;-74
2023/04/04 07:58:25;;;;;;;19.53;9.40;;;;;;;-143.84;94.02;44001.94;5069747;28;21019;-74
2023/04/04 08:00:53;;;;;;;22.67;9.50;;;;;;;-143.84;94.41;44015.25;5069581;28;20432;-73
2023/04/04 08:03:22;;;;;;;20.93;8.73;;;;;;;-143.84;94.37;44013.38;5069490;28;20448;-74
2023/04/04 08:05:50;;;;;;;20.50;8.67;;;;;;;-143.84;94.16;44017.16;5069316;28;20581;-74
2023/04/04 08:08:17;;;;;;;19.10;9.50;;;;;;;-143.84;94.51;44017.16;5069342;28;20515;-75
2023/04/04 08:10:44;;;;;;;27.40;10.03;;;;;;;-143.84;94.22;44017.16;5075207;28;20491;-75
2023/04/04 08:13:12;;;;;;;24.67;8.37;;;;;;;-143.84;94.43;44020.97;5075638;28;21018;-75
2023/04/04 08:15:39;;;;;;;18.10;8.40;;;;;;;-143.84;94.71;44032.41;5075906;28;20444;-73
2023/04/04 08:18:08;;;;;;;25.07;8.90;;;;;;;-143.84;94.99;44036.22;5072253;28;20962;-75
2023/04/04 08:20:35;;;;;;;29.63;9.67;;;;;;;-143.84;95.36;44053.34;5066031;28;20494;-75
2023/04/04 08:23:03;;;;;;;13.50;7.97;;;;;;;-143.84;95.49;44049.53;5066317;28;20444;-75
2023/04/04 08:25:30;;;;;;;24.73;8.40;;;;;;;-143.84;95.77;44060.94;5066244;28;20476;-75
2023/04/04 08:27:57;;;;;;;28.40;9.33;;;;;;;-143.84;95.62;44070.47;5071375;28;20443;-75
2023/04/04 08:30:24;;;;;;;23.07;10.67;;;;;;;-143.84;95.39;44055.25;5075425;28;20513;-75
2023/04/04 08:32:51;;;;;;;22.70;8.70;;;;;;;-143.84;95.31;44047.63;5075653;28;20451;-75
2023/04/04 08:35:20;;;;;;;35.93;9.10;;;;;;;-143.84;95.40;44053.34;5075461;28;20447;-75
2023/04/04 08:37:47;;;;;;;28.97;9.93;;;;;;;-143.84;95.46;44045.72;5068306;28;20445;-75
2023/04/04 08:40:15;;;;;;;26.93;9.13;;;;;;;-143.84;94.85;44041.91;5059948;28;20515;-74
2023/04/04 08:42:44;;;;;;;22.17;9.67;;;;;;;-143.84;94.84;44026.69;5055538;28;20440;-74
2023/04/04 08:45:13;;;;;;;24.47;9.57;;;;;;;-143.84;94.54;44026.69;5055416;28;20955;-74
2023/04/04 08:47:41;;;;;;;23.17;10.03;;;;;;;-143.84;93.79;44000.03;5055717;28;20433;-75
2023/04/04 08:50:09;;;;;;;24.13;8.43;;;;;;;-143.84;93.80;44005.75;5055305;28;20460;-75
2023/04/04 08:52:38;;;;;;;23.87;8.33;;;;;;;-143.84;93.61;43982.91;5060145;28;20452;-75
2023/04/04 08:55:06;;;;;;;28.27;9.07;;;;;;;-143.84;93.36;43988.63;5062082;28;21199;-75
2023/04/04 08:57:34;;;;;;;30.03;9.70;;;;;;;-143.84;93.66;43986.72;5065364;28;20461;-74
2023/04/04 09:00:04;;;;;;;26.27;9.20;;;;;;;-143.84;94.04;44026.69;5066079;28;20445;-75
2023/04/04 09:02:37;;;;;;;19.70;9.23;;;;;;;-143.84;94.13;44009.56;5069234;28;20437;-75
2023/04/04 09:05:07;;;;;;;16.07;8.10;;;;;;;-143.84;93.69;43998.13;5066564;28;20450;-75
2023/04/04 09:07:35;;;;;;;17.80;8.43;;;;;;;-143.84;93.19;43973.38;5062459;28;20470;-75
2023/04/04 09:10:04;;;;;;;16.93;8.43;;;;;;;-143.84;92.55;43931.50;5076977;28;20536;-77
2023/04/04 09:12:36;;;;;;;30.20;8.33;;;;;;;-143.84;92.17;43916.28;5077371;28;20561;-77
2023/04/04 09:15:04;;;;;;;26.40;7.73;;;;;;;-143.84;92.34;43914.38;5077315;28;20441;-77
2023/04/04 09:17:33;;;;;;;30.30;9.13;;;;;;;-143.84;91.18;43889.63;5076725;28;20451;-77
2023/04/04 09:20:03;;;;;;;22.10;7.87;;;;;;;-143.84;90.73;43853.47;5077486;28;20460;-77
2023/04/04 09:22:30;;;;;;;27.93;8.50;;;;;;;-143.84;90.69;43872.50;5073899;28;20447;-77
2023/04/04 09:24:57;;;;;;;29.20;8.30;;;;;;;-143.84;90.35;43868.69;5074399;28;20787;-77
2023/04/04 09:27:26;;;;;;;23.67;7.80;;;;;;;-143.84;90.74;43899.16;5074134;28;20471;-77
2023/04/04 09:29:53;;;;;;;27.40;8.27;;;;;;;-143.84;89.98;43859.19;5074602;28;20447;-77
2023/04/04 09:32:23;;;;;;;24.97;8.30;;;;;;;-143.84;89.47;43826.81;5074119;28;20472;-77
2023/04/04 09:34:51;;;;;;;28.90;7.60;;;;;;;-143.84;89.49;43845.84;5073738;28;20827;-77
2023/04/04 09:37:19;;;;;;;25.23;7.47;;;;;;;-143.84;89.21;43815.41;5073928;28;20445;-77
2023/04/04 09:39:46;;;;;;;26.03;7.17;;;;;;;-143.84;88.37;43805.88;5073775;28;20871;-77
2023/04/04 09:42:15;;;;;;;34.13;7.90;;;;;;;-143.84;88.39;43809.69;5073251;28;20442;-77
2023/04/04 09:44:44;;;;;;;21.80;7.20;;;;;;;-143.84;87.99;43788.75;5073650;28;20896;-77
2023/04/04 09:47:24;;;;;;;27.87;7.60;;;;;;;-143.84;87.89;43811.59;5073232;28;20564;-77
2023/04/04 09:49:51;;;;;;;18.13;7.07;;;;;;;-143.84;87.58;43819.19;5072753;28;20441;-77
2023/04/04 09:52:20;;;;;;;21.67;7.97;;;;;;;-143.84;87.79;43811.59;5072964;28;20501;-77
2023/04/04 09:54:56;;;;;;;15.83;7.30;;;;;;;-143.84;87.90;43819.19;5073303;28;20522;-77
2023/04/04 09:57:24;;;;;;;28.40;7.93;;;;;;;-143.84;87.86;43803.97;5073100;28;20454;-77
2023/04/04 09:59:56;;;;;;;26.30;7.33;;;;;;;-143.84;87.85;43834.44;5073087;28;20843;-77
2023/04/04 10:02:23;;;;;;;23.77;7.50;;;;;;;-143.84;88.33;43771.63;5072967;28;20469;-77
2023/04/04 10:04:50;;;;;;;24.27;8.37;;;;;;;-143.84;88.10;43802.06;5072824;28;20450;-77
2023/04/04 10:07:18;;;;;;;26.27;7.70;;;;;;;-143.84;87.96;43786.84;5072218;28;20483;-77
2023/04/04 10:09:49;;;;;;;31.80;8.53;;;;;;;-143.84;87.66;43807.78;5072563;28;20447;-77
2023/04/04 10:12:17;;;;;;;28.37;7.50;;;;;;;-143.84;87.36;43853.47;5070140;28;20483;-77
2023/04/04 10:14:44;;;;;;;28.17;8.17;;;;;;;-143.84;86.59;43927.69;5071595;28;20437;-77
2023/04/04 10:17:13;;;;;;;33.00;8.67;;;;;;;-143.84;86.76;43878.22;5069537;28;20485;-77
2023/04/04 10:19:41;;;;;;;26.67;8.03;;;;;;;-143.84;86.21;43975.28;5069539;28;20444;-77
2023/04/04 10:22:09;;;;;;;32.03;8.57;;;;;;;-143.84;85.29;44127.56;5071811;28;20468;-77
2023/04/04 10:24:36;;;;;;;28.40;8.67;;;;;;;-143.84;85.34;44165.66;5071465;28;20444;-77
2023/04/04 10:27:03;;;;;;;22.80;7.90;;;;;;;-143.84;84.90;44293.19;5071495;28;20541;-77
2023/04/04 10:29:31;;;;;;;25.00;7.97;;;;;;;-143.84;84.83;44335.09;5072352;28;20519;-77
2023/04/04 10:32:03;;;;;;;29.03;7.73;;;;;;;-143.84;84.63;44285.59;5071554;28;20482;-77
2023/04/04 10:34:40;;;;;;;34.90;8.20;;;;;;;-143.84;84.33;44434.09;5071113;28;20439;-77
2023/04/04 10:37:12;;;;;;;34.07;9.57;;;;;;;-143.84;84.71;44340.78;5070285;28;20433;-77
2023/04/04 10:39:45;;;;;;;18.70;8.20;;;;;;;-143.84;84.47;44405.53;5070413;28;20440;-77
2023/04/04 10:42:15;;;;;;;30.27;7.90;;;;;;;-143.84;84.58;44411.22;5071279;28;21019;-77
2023/04/04 10:44:45;;;;;;;41.70;8.10;;;;;;;-143.84;85.69;44116.16;5071285;28;20444;-78
2023/04/04 10:47:15;;;;;;;36.70;7.77;;;;;;;-143.84;85.73;44057.16;5070897;28;20484;-78
2023/04/04 10:49:45;;;;;;;37.50;10.40;;;;;;;-143.84;85.92;44045.72;5071173;28;21054;-78
2023/04/04 10:52:14;;;;;;;29.13;7.87;;;;;;;-143.84;86.02;44022.88;5072117;28;20440;-78
2023/04/04 10:54:42;;;;;;;27.13;8.17;;;;;;;-143.84;86.29;44001.94;5072417;28;20448;-77
2023/04/04 10:57:10;;;;;;;35.57;8.77;;;;;;;-143.84;86.79;43923.91;5072048;28;20433;-77
2023/04/04 10:59:58;;;;;;;23.03;8.43;;;;;;;-143.84;86.73;43927.69;5072550;28;20499;-77
2023/04/04 11:02:44;;;;;;;38.00;8.10;;;;;;;-143.84;87.06;43880.13;5072345;28;20440;-77
2023/04/04 11:05:15;;;;;;;27.13;8.73;;;;;;;-143.84;87.21;43819.19;5071498;28;20470;-77
2023/04/04 11:07:46;;;;;;;32.10;8.50;;;;;;;-143.84;87.45;43832.53;5072000;28;20491;-77
2023/04/04 11:10:21;;;;;;;22.83;8.13;;;;;;;-143.84;87.76;43803.97;5071976;28;20538;-77
2023/04/04 11:12:53;;;;;;;32.70;8.30;;;;;;;-143.84;87.93;43800.16;5051601;28;20440;-77
2023/04/04 11:15:22;;;;;;;41.13;12.13;;;;;;;-143.84;88.00;43803.97;5051743;28;20441;-77